Prices Branch, Missouri
Current Conditions -  °F | °C
As of 2:55 PM on Tuesday 25 Nov 2014 (Local Time) from KFYG Reporting Station
Clear Clear  
Wind Chill: 36°   Ceiling: Unl
Heat Index: 41°   Visibility: 10mi
Dew Point: 23°   Wind: 7mph
Humidity: 49%   Direction: 300°WNW
Pressure: 30.14"   Gusts: NA
Location:  38.8882°N, 91.5312°W
Report Text: KFYG 252055Z AUTO 30006KT 10SM CLR 05/M05 A3014 RMK AO2
Loading
Personal Weather Stations






























Interactive Weather Map New forecast layout! Learn more

10-Day Weather Forecast

Advertisements
Track Severe Weather on mobile